Time;durP1;ratioP1;P1;durP2;ratioP2;P2;SDS_P1;SDS_P2;PMS_P1;PMS_P2;Temp;Humidity;BMP_temperature;BMP_pressure;BME280_temperature;BME280_humidity;BME280_pressure;Samples;Min_cycle;Max_cycle;Signal;HPM_P1;HPM_P2
2022/07/28 00:00:06;;;;;;;11.60;1.90;;;21.00;90.20;;;;;;5076708;28;20070;-71
2022/07/28 00:02:32;;;;;;;11.60;3.28;;;21.00;90.40;;;;;;5078848;28;20545;-71
2022/07/28 00:04:58;;;;;;;4.65;2.45;;;20.90;90.30;;;;;;5084599;28;20024;-72
2022/07/28 00:07:25;;;;;;;6.20;2.22;;;20.90;90.60;;;;;;5087407;28;20622;-72
2022/07/28 00:09:51;;;;;;;3.05;1.65;;;20.80;90.70;;;;;;5077452;28;20024;-72
2022/07/28 00:12:17;;;;;;;7.53;1.92;;;20.80;90.90;;;;;;5080723;28;20393;-71
2022/07/28 00:14:43;;;;;;;4.65;1.95;;;20.70;91.20;;;;;;5074822;28;20031;-72
2022/07/28 00:17:09;;;;;;;5.10;1.80;;;20.70;91.80;;;;;;5077389;28;20029;-72
2022/07/28 00:19:35;;;;;;;3.25;1.40;;;20.60;91.70;;;;;;5075335;28;20029;-71
2022/07/28 00:22:05;;;;;;;6.38;1.95;;;20.50;92.00;;;;;;5074614;28;20085;-71
2022/07/28 00:24:31;;;;;;;4.82;2.08;;;20.50;92.30;;;;;;5076348;28;20024;-72
2022/07/28 00:26:57;;;;;;;5.40;2.13;;;20.40;92.60;;;;;;5074556;28;20021;-71
2022/07/28 00:29:22;;;;;;;8.18;2.13;;;20.40;92.80;;;;;;5075623;28;20031;-71
2022/07/28 00:31:48;;;;;;;5.43;1.85;;;20.30;93.10;;;;;;5074881;28;20512;-71
2022/07/28 00:34:14;;;;;;;5.10;2.03;;;20.30;93.40;;;;;;5077437;28;20029;-72
2022/07/28 00:36:40;;;;;;;4.18;1.90;;;20.30;93.40;;;;;;5073148;28;20033;-72
2022/07/28 00:39:06;;;;;;;8.40;1.90;;;20.30;93.60;;;;;;5075039;28;20433;-72
2022/07/28 00:41:32;;;;;;;3.50;2.38;;;20.20;93.90;;;;;;5075294;28;20016;-72
2022/07/28 00:43:57;;;;;;;6.07;2.47;;;20.20;94.50;;;;;;5079855;28;20085;-72
2022/07/28 00:46:23;;;;;;;3.47;1.98;;;20.00;94.40;;;;;;5076155;28;20021;-71
2022/07/28 00:48:51;;;;;;;6.57;2.05;;;20.00;94.60;;;;;;5078870;28;20105;-71
2022/07/28 00:51:20;;;;;;;3.90;1.98;;;19.90;94.90;;;;;;5076098;28;20753;-72
2022/07/28 00:53:46;;;;;;;4.05;2.00;;;19.90;95.20;;;;;;5073869;28;20024;-73
2022/07/28 00:56:13;;;;;;;2.92;1.75;;;19.80;95.50;;;;;;5079970;28;20024;-72
2022/07/28 00:58:40;;;;;;;3.08;2.20;;;19.80;95.80;;;;;;5076930;28;20462;-72
2022/07/28 01:01:08;;;;;;;6.97;1.90;;;19.70;96.00;;;;;;5080639;28;20834;-71
2022/07/28 01:03:37;;;;;;;2.30;1.73;;;19.70;96.20;;;;;;5076176;28;20132;-72
2022/07/28 01:06:15;;;;;;;7.10;2.17;;;19.60;96.40;;;;;;5075602;28;20476;-71
2022/07/28 01:09:17;;;;;;;4.10;1.98;;;19.50;96.60;;;;;;5089828;28;20059;-71
2022/07/28 01:12:12;;;;;;;6.38;2.05;;;19.50;96.90;;;;;;5074618;28;20042;-73
2022/07/28 01:15:02;;;;;;;5.82;2.20;;;19.50;97.20;;;;;;5075398;28;20142;-71
2022/07/28 01:17:30;;;;;;;8.77;2.40;;;19.40;97.40;;;;;;5078241;28;20048;-71
2022/07/28 01:20:06;;;;;;;6.13;2.80;;;19.40;97.60;;;;;;5080227;28;20067;-72
2022/07/28 01:22:37;;;;;;;6.80;2.45;;;19.30;97.80;;;;;;5091205;28;20024;-72
2022/07/28 01:25:14;;;;;;;4.50;1.77;;;19.30;98.00;;;;;;5089889;28;20043;-71
2022/07/28 01:28:22;;;;;;;3.67;2.05;;;19.30;98.20;;;;;;5092094;28;20447;-71
2022/07/28 01:31:03;;;;;;;4.38;2.05;;;19.30;98.40;;;;;;5085758;28;20043;-71
2022/07/28 01:33:41;;;;;;;;;;;19.10;98.70;;;;;;5080720;28;20027;-71
2022/07/28 01:36:15;;;;;;;5.03;2.10;;;19.10;99.00;;;;;;5078881;28;19914;-71
2022/07/28 01:38:42;;;;;;;5.90;2.42;;;19.10;99.30;;;;;;5080046;28;20085;-71
2022/07/28 01:41:13;;;;;;;5.55;2.33;;;19.00;99.60;;;;;;5078889;28;20085;-71
2022/07/28 01:43:44;;;;;;;4.72;2.42;;;19.00;99.80;;;;;;5079011;28;20485;-71
2022/07/28 01:46:11;;;;;;;5.40;2.00;;;18.90;99.90;;;;;;5075818;28;20043;-70
2022/07/28 01:48:39;;;;;;;4.82;2.55;;;18.90;99.90;;;;;;5077638;28;20048;-73
2022/07/28 01:51:08;;;;;;;4.45;2.42;;;18.90;99.90;;;;;;5078455;28;20041;-70
2022/07/28 01:53:37;;;;;;;5.30;1.95;;;18.90;99.90;;;;;;5077910;28;20100;-71
2022/07/28 01:56:04;;;;;;;4.53;2.22;;;18.80;99.90;;;;;;5079577;28;20025;-71
2022/07/28 01:58:31;;;;;;;5.82;2.00;;;18.80;99.90;;;;;;5079321;28;20041;-70
2022/07/28 02:00:59;;;;;;;3.65;1.98;;;18.80;99.90;;;;;;5079291;28;20020;-71
2022/07/28 02:03:29;;;;;;;3.30;2.10;;;18.80;99.90;;;;;;5079643;28;20036;-71
2022/07/28 02:05:57;;;;;;;4.25;2.00;;;18.70;99.90;;;;;;5083817;28;20024;-71
2022/07/28 02:08:24;;;;;;;7.40;2.30;;;18.70;99.90;;;;;;5078868;28;20021;-72
2022/07/28 02:13:40;;;;;;;6.53;2.10;;;18.60;99.90;;;;;;5080474;28;20093;-70
2022/07/28 02:16:10;;;;;;;3.85;2.05;;;18.60;99.90;;;;;;5078951;28;20473;-71
2022/07/28 02:18:37;;;;;;;5.40;2.20;;;18.50;99.90;;;;;;5077869;28;20031;-71
2022/07/28 02:21:04;;;;;;;5.70;2.05;;;18.50;99.90;;;;;;5077441;28;20013;-71
2022/07/28 02:23:30;;;;;;;3.45;2.50;;;18.40;99.90;;;;;;5079713;28;20074;-72
2022/07/28 02:25:57;;;;;;;3.90;2.20;;;18.40;99.90;;;;;;5076560;28;20207;-71
2022/07/28 02:28:26;;;;;;;4.63;2.22;;;18.30;99.90;;;;;;5079550;28;20059;-71
2022/07/28 02:31:05;;;;;;;3.20;1.98;;;18.30;99.90;;;;;;5077280;28;20028;-71
2022/07/28 02:33:33;;;;;;;8.38;2.17;;;18.30;99.90;;;;;;5083916;28;20028;-71
2022/07/28 02:36:06;;;;;;;4.82;2.15;;;18.30;99.90;;;;;;5084493;28;20032;-71
2022/07/28 02:38:40;;;;;;;3.75;2.03;;;18.20;99.90;;;;;;5078603;28;20420;-71
2022/07/28 02:41:22;;;;;;;3.50;2.30;;;18.20;99.90;;;;;;5076569;28;20032;-72
2022/07/28 02:43:51;;;;;;;4.13;2.10;;;18.20;99.90;;;;;;5091466;28;20024;-71
2022/07/28 02:46:24;;;;;;;3.50;2.20;;;18.10;99.90;;;;;;5080247;28;20051;-71
2022/07/28 02:48:55;;;;;;;5.90;1.90;;;18.10;99.90;;;;;;5077133;28;20075;-71
2022/07/28 02:51:27;;;;;;;3.35;2.10;;;18.00;99.90;;;;;;5076103;28;20523;-71
2022/07/28 02:53:54;;;;;;;5.93;2.05;;;18.00;99.90;;;;;;5076205;28;20099;-71
2022/07/28 02:56:21;;;;;;;4.55;2.30;;;18.00;99.90;;;;;;5079228;28;20096;-70
2022/07/28 02:58:47;;;;;;;3.40;2.30;;;17.90;99.90;;;;;;5078911;28;20017;-71
2022/07/28 03:01:17;;;;;;;4.00;2.05;;;17.90;99.90;;;;;;5079975;28;20052;-70
2022/07/28 03:03:45;;;;;;;3.33;2.07;;;17.90;99.90;;;;;;5077120;28;20123;-71
2022/07/28 03:06:11;;;;;;;4.72;2.15;;;17.80;99.90;;;;;;5079298;28;20409;-71
2022/07/28 03:08:37;;;;;;;5.00;2.15;;;17.80;99.90;;;;;;5081927;28;20044;-71
2022/07/28 03:11:10;;;;;;;2.83;2.20;;;17.70;99.90;;;;;;5077675;28;20024;-70
2022/07/28 03:13:37;;;;;;;5.03;2.10;;;17.70;99.90;;;;;;5078076;28;20047;-71
2022/07/28 03:16:03;;;;;;;3.45;2.30;;;17.70;99.90;;;;;;5077249;28;20082;-71
2022/07/28 03:18:29;;;;;;;4.55;2.10;;;17.60;99.90;;;;;;5082750;28;20032;-71
2022/07/28 03:20:55;;;;;;;3.97;2.15;;;17.60;99.90;;;;;;5086254;28;20349;-70
2022/07/28 03:23:27;;;;;;;4.18;2.25;;;17.60;99.90;;;;;;5078075;28;20032;-71
2022/07/28 03:25:56;;;;;;;4.57;2.72;;;17.60;99.90;;;;;;5075896;28;20024;-71
2022/07/28 03:28:23;;;;;;;6.97;2.13;;;17.50;99.90;;;;;;5086788;28;20476;-71
2022/07/28 03:31:02;;;;;;;4.05;1.95;;;17.50;99.90;;;;;;5075912;28;20166;-71
2022/07/28 03:33:28;;;;;;;3.70;2.08;;;17.50;99.90;;;;;;5081075;28;20121;-71
2022/07/28 03:35:58;;;;;;;5.55;2.75;;;17.40;99.90;;;;;;5080244;28;20021;-73
2022/07/28 03:38:40;;;;;;;7.22;2.22;;;17.40;99.90;;;;;;5079155;28;20023;-74
2022/07/28 03:41:08;;;;;;;4.93;2.63;;;17.40;99.90;;;;;;5078782;28;20052;-73
2022/07/28 03:43:34;;;;;;;4.43;2.28;;;17.40;99.90;;;;;;5078936;28;20013;-71
2022/07/28 03:46:00;;;;;;;8.32;2.47;;;17.40;99.90;;;;;;5084359;28;20088;-73
2022/07/28 03:48:30;;;;;;;4.97;2.53;;;17.30;99.90;;;;;;5085183;28;20048;-73
2022/07/28 03:50:56;;;;;;;4.78;2.33;;;17.30;99.90;;;;;;5078324;28;20028;-74
2022/07/28 03:53:25;;;;;;;7.18;2.22;;;17.30;99.90;;;;;;5086446;28;20031;-73
2022/07/28 03:55:52;;;;;;;4.82;2.25;;;17.20;99.90;;;;;;5083404;28;20047;-73
2022/07/28 03:58:23;;;;;;;12.27;2.17;;;17.20;99.90;;;;;;5097312;28;20073;-74
2022/07/28 04:00:49;;;;;;;4.03;2.47;;;17.20;99.90;;;;;;5091365;28;20021;-73
2022/07/28 04:03:17;;;;;;;14.70;2.58;;;17.20;99.90;;;;;;5081273;28;20020;-73
2022/07/28 04:05:43;;;;;;;6.80;2.30;;;17.10;99.90;;;;;;5080899;28;20095;-73
2022/07/28 04:08:08;;;;;;;3.63;2.53;;;17.10;99.90;;;;;;5078447;28;20388;-73
2022/07/28 04:10:34;;;;;;;4.95;2.25;;;17.10;99.90;;;;;;5078379;28;20012;-74
2022/07/28 04:13:00;;;;;;;3.10;2.50;;;17.10;99.90;;;;;;5088364;28;20120;-73
2022/07/28 04:15:28;;;;;;;5.47;2.00;;;17.00;99.90;;;;;;5093907;28;20401;-74
2022/07/28 04:17:55;;;;;;;4.80;2.63;;;17.00;99.90;;;;;;5094741;28;20103;-74
2022/07/28 04:20:23;;;;;;;5.22;2.72;;;17.00;99.90;;;;;;5089906;28;20036;-73
2022/07/28 04:22:50;;;;;;;5.85;2.00;;;17.00;99.90;;;;;;5092482;28;20107;-73
2022/07/28 04:25:18;;;;;;;7.57;2.78;;;17.00;99.90;;;;;;5086483;28;20431;-73
2022/07/28 04:27:45;;;;;;;3.58;2.05;;;17.00;99.90;;;;;;5090527;28;20049;-73
2022/07/28 04:30:13;;;;;;;5.93;2.90;;;16.90;99.90;;;;;;5084215;28;20095;-74
2022/07/28 04:32:40;;;;;;;4.15;2.20;;;17.00;99.90;;;;;;5094052;28;20076;-73
2022/07/28 04:35:07;;;;;;;4.22;2.20;;;17.00;99.90;;;;;;5090944;28;20024;-73
2022/07/28 04:37:33;;;;;;;3.63;2.50;;;17.00;99.90;;;;;;5083110;28;20025;-73
2022/07/28 04:39:59;;;;;;;3.40;2.20;;;16.90;99.90;;;;;;5080070;28;20016;-73
2022/07/28 04:42:25;;;;;;;8.52;2.60;;;16.90;99.90;;;;;;5090325;28;20488;-73
2022/07/28 04:44:51;;;;;;;4.60;3.38;;;16.90;99.90;;;;;;5095908;28;20050;-74
2022/07/28 04:47:17;;;;;;;5.72;2.53;;;17.00;99.90;;;;;;5084230;28;20074;-74
2022/07/28 04:49:43;;;;;;;5.20;2.38;;;17.00;99.90;;;;;;5096325;28;20020;-73
2022/07/28 04:52:09;;;;;;;6.22;2.25;;;16.90;99.90;;;;;;5097586;28;20048;-73
2022/07/28 04:54:36;;;;;;;3.92;2.10;;;16.90;99.90;;;;;;5093032;28;20039;-73
2022/07/28 04:57:02;;;;;;;8.85;2.50;;;16.90;99.90;;;;;;5096262;28;20102;-73
2022/07/28 04:59:28;;;;;;;3.92;2.30;;;16.90;99.90;;;;;;5093154;28;20058;-73
2022/07/28 05:01:56;;;;;;;2.58;2.15;;;16.90;99.90;;;;;;5099507;28;20035;-73
2022/07/28 05:04:22;;;;;;;8.60;2.50;;;16.90;99.90;;;;;;5087117;28;20048;-74
2022/07/28 05:06:48;;;;;;;3.25;2.30;;;16.90;99.90;;;;;;5090438;28;20028;-73
2022/07/28 05:09:14;;;;;;;4.88;2.40;;;16.90;99.90;;;;;;5085670;28;20052;-73
2022/07/28 05:11:41;;;;;;;4.35;2.40;;;17.00;99.90;;;;;;5087252;28;20024;-73
2022/07/28 05:14:07;;;;;;;4.00;2.22;;;17.00;99.90;;;;;;5093192;28;20070;-73
2022/07/28 05:16:32;;;;;;;4.97;2.40;;;17.00;99.90;;;;;;5083107;28;20032;-73
2022/07/28 05:18:58;;;;;;;4.20;2.47;;;17.00;99.90;;;;;;5087892;28;20479;-73
2022/07/28 05:21:24;;;;;;;4.88;2.40;;;17.00;99.90;;;;;;5099887;28;20047;-73
2022/07/28 05:23:50;;;;;;;3.78;2.50;;;17.10;99.90;;;;;;5098717;28;20106;-73
2022/07/28 05:26:15;;;;;;;4.53;2.60;;;17.10;99.90;;;;;;5097719;28;20101;-73
2022/07/28 05:28:42;;;;;;;4.90;2.83;;;17.10;99.90;;;;;;5098957;28;20438;-73
2022/07/28 05:31:07;;;;;;;3.72;2.30;;;17.20;99.90;;;;;;5090978;28;20031;-74
2022/07/28 05:33:34;;;;;;;5.82;2.70;;;17.20;99.90;;;;;;5098297;28;20016;-73
2022/07/28 05:36:00;;;;;;;6.25;2.15;;;17.30;99.90;;;;;;5092826;28;20036;-74
2022/07/28 05:38:27;;;;;;;6.63;2.55;;;17.30;99.90;;;;;;5092587;28;20047;-74
2022/07/28 05:40:53;;;;;;;4.35;2.30;;;17.50;99.90;;;;;;5099130;28;20063;-74
2022/07/28 05:43:20;;;;;;;4.20;2.30;;;17.50;99.90;;;;;;5081445;28;20036;-73
2022/07/28 05:45:46;;;;;;;5.38;2.38;;;17.50;99.90;;;;;;5097934;28;20024;-74
2022/07/28 05:48:12;;;;;;;5.18;2.50;;;17.60;99.90;;;;;;5085197;28;20503;-74
2022/07/28 05:50:38;;;;;;;8.15;2.63;;;17.60;99.90;;;;;;5088659;28;20107;-74
2022/07/28 05:53:04;;;;;;;5.45;2.40;;;17.60;99.90;;;;;;5090044;28;20105;-73
2022/07/28 05:55:30;;;;;;;8.68;2.53;;;17.60;99.90;;;;;;5087466;28;20108;-74
2022/07/28 05:57:58;;;;;;;5.90;2.83;;;17.60;99.90;;;;;;5080875;28;20442;-73
2022/07/28 06:00:25;;;;;;;7.00;2.75;;;17.60;99.90;;;;;;5091991;28;20032;-74
2022/07/28 06:02:51;;;;;;;6.05;2.33;;;17.60;99.90;;;;;;5085540;28;20117;-73
2022/07/28 06:05:20;;;;;;;5.63;2.47;;;17.70;99.90;;;;;;5097107;28;20020;-73
2022/07/28 06:07:47;;;;;;;7.10;2.75;;;17.80;99.90;;;;;;5097527;28;20024;-73
2022/07/28 06:10:16;;;;;;;7.43;3.10;;;17.90;99.90;;;;;;5099513;28;20381;-74
2022/07/28 06:12:47;;;;;;;7.88;3.03;;;18.00;99.90;;;;;;5098038;28;20028;-74
2022/07/28 06:15:14;;;;;;;7.75;2.83;;;18.10;99.90;;;;;;5090882;28;20020;-74
2022/07/28 06:17:41;;;;;;;6.30;2.97;;;18.20;99.90;;;;;;5094511;28;20089;-74
2022/07/28 06:20:07;;;;;;;4.40;2.40;;;18.30;99.90;;;;;;5096026;28;20043;-71
2022/07/28 06:22:44;;;;;;;6.82;2.55;;;18.40;99.90;;;;;;5094377;28;20041;-77
2022/07/28 06:25:15;;;;;;;6.97;3.10;;;18.60;99.90;;;;;;5093108;28;20020;-73
2022/07/28 06:27:40;;;;;;;;;;;18.70;99.90;;;;;;5095258;28;20020;-73
2022/07/28 06:30:08;;;;;;;8.75;3.13;;;18.80;99.90;;;;;;5098269;28;19911;-73
2022/07/28 06:32:34;;;;;;;7.10;2.42;;;18.90;99.90;;;;;;5097676;28;20035;-73
2022/07/28 06:35:00;;;;;;;7.68;2.22;;;19.20;99.90;;;;;;5094325;28;20477;-74
2022/07/28 06:37:26;;;;;;;6.30;2.47;;;19.30;99.90;;;;;;5095474;28;20030;-74
2022/07/28 06:39:52;;;;;;;5.75;2.33;;;19.30;99.90;;;;;;5092803;28;20055;-74
2022/07/28 06:42:17;;;;;;;6.13;2.13;;;19.40;99.90;;;;;;5091305;28;20035;-74
2022/07/28 06:44:43;;;;;;;8.48;2.25;;;19.70;99.90;;;;;;5092579;28;20020;-74
2022/07/28 06:47:09;;;;;;;6.00;2.45;;;19.90;99.90;;;;;;5084534;28;20145;-74
2022/07/28 06:49:35;;;;;;;6.15;2.75;;;20.00;99.90;;;;;;5083951;28;20023;-72
2022/07/28 06:52:01;;;;;;;6.38;2.53;;;20.20;99.90;;;;;;5089975;28;20052;-73
2022/07/28 06:54:26;;;;;;;8.23;2.72;;;20.30;99.90;;;;;;5082338;28;20023;-72
2022/07/28 06:56:52;;;;;;;11.80;2.53;;;20.40;99.90;;;;;;5077090;28;20562;-72
2022/07/28 06:59:18;;;;;;;8.00;3.17;;;20.60;99.90;;;;;;5085827;28;20050;-72
2022/07/28 07:01:44;;;;;;;5.53;2.30;;;20.70;99.90;;;;;;5088873;28;20055;-72
2022/07/28 07:04:10;;;;;;;5.53;2.00;;;20.60;99.90;;;;;;5089941;28;20014;-73
2022/07/28 07:06:36;;;;;;;6.00;1.73;;;20.50;99.90;;;;;;5089801;28;20016;-72
2022/07/28 07:09:02;;;;;;;6.75;2.38;;;20.40;99.90;;;;;;5089375;28;20028;-72
2022/07/28 07:11:28;;;;;;;7.07;2.28;;;20.30;99.90;;;;;;5081377;28;20494;-72
2022/07/28 07:13:54;;;;;;;5.15;2.22;;;20.30;99.90;;;;;;5084489;28;20020;-72
2022/07/28 07:16:20;;;;;;;6.85;2.20;;;20.40;99.90;;;;;;5080208;28;20028;-72
2022/07/28 07:18:49;;;;;;;7.90;2.15;;;20.30;99.90;;;;;;5082142;28;20024;-72
2022/07/28 07:21:15;;;;;;;10.98;3.17;;;20.30;99.90;;;;;;5091606;28;20107;-72
2022/07/28 07:23:41;;;;;;;10.73;2.35;;;20.30;99.90;;;;;;5088954;28;20077;-72
2022/07/28 07:26:07;;;;;;;12.10;2.42;;;20.30;99.90;;;;;;5081069;28;20028;-75
2022/07/28 07:28:33;;;;;;;4.70;2.22;;;20.30;99.90;;;;;;5087564;28;20108;-75
2022/07/28 07:30:59;;;;;;;7.35;2.40;;;20.40;99.90;;;;;;5093176;28;20020;-75
2022/07/28 07:33:25;;;;;;;8.15;2.30;;;20.40;99.90;;;;;;5085863;28;20080;-74
2022/07/28 07:35:51;;;;;;;6.50;2.03;;;20.40;99.90;;;;;;5096363;28;20556;-74
2022/07/28 07:38:17;;;;;;;9.27;2.38;;;20.50;99.90;;;;;;5097272;28;20083;-73
2022/07/28 07:40:43;;;;;;;10.05;2.75;;;20.50;99.90;;;;;;5089399;28;20052;-73
2022/07/28 07:43:09;;;;;;;12.68;2.33;;;20.50;99.90;;;;;;5083992;28;20119;-74
2022/07/28 07:45:35;;;;;;;4.68;1.95;;;20.50;99.90;;;;;;5087036;28;20044;-74
2022/07/28 07:48:02;;;;;;;10.32;2.35;;;20.60;99.90;;;;;;5084699;28;20103;-74
2022/07/28 07:50:29;;;;;;;4.40;2.20;;;20.70;99.90;;;;;;5097604;28;20392;-73
2022/07/28 07:52:55;;;;;;;5.90;1.85;;;20.90;99.90;;;;;;5096738;28;20048;-72
2022/07/28 07:55:21;;;;;;;3.25;2.17;;;21.00;99.90;;;;;;5090609;28;20027;-71
2022/07/28 07:57:46;;;;;;;7.55;2.13;;;21.10;99.90;;;;;;5095783;28;20023;-73
2022/07/28 08:00:13;;;;;;;11.20;2.35;;;21.10;99.90;;;;;;5095364;28;20052;-73
2022/07/28 08:02:40;;;;;;;6.10;1.90;;;21.10;99.90;;;;;;5095766;28;20111;-73
2022/07/28 08:05:06;;;;;;;8.57;2.42;;;21.10;99.90;;;;;;5095832;28;20046;-73
2022/07/28 08:07:33;;;;;;;10.38;1.88;;;21.20;99.90;;;;;;5086390;28;20017;-73
2022/07/28 08:09:59;;;;;;;11.25;2.20;;;21.00;99.90;;;;;;5091482;28;20441;-73
2022/07/28 08:12:24;;;;;;;6.63;2.28;;;21.10;99.90;;;;;;5084119;28;20036;-72
2022/07/28 08:14:50;;;;;;;8.18;2.13;;;21.20;99.90;;;;;;5082526;28;20119;-75
2022/07/28 08:17:16;;;;;;;10.82;2.40;;;21.30;99.90;;;;;;5084844;28;20028;-74
2022/07/28 08:19:42;;;;;;;10.82;2.40;;;21.30;99.90;;;;;;5086897;28;20024;-75
2022/07/28 08:22:08;;;;;;;11.05;2.53;;;21.20;99.90;;;;;;5092786;28;20020;-73
2022/07/28 08:24:34;;;;;;;8.90;1.85;;;21.20;99.90;;;;;;5089225;28;20024;-75
2022/07/28 08:27:03;;;;;;;10.25;2.17;;;21.20;99.90;;;;;;5082484;28;20103;-75
2022/07/28 08:29:29;;;;;;;7.38;2.20;;;21.10;99.90;;;;;;5087760;28;20047;-76
2022/07/28 08:31:58;;;;;;;8.57;2.33;;;21.20;99.90;;;;;;5081096;28;20146;-74
2022/07/28 08:34:25;;;;;;;6.03;2.28;;;21.30;99.90;;;;;;5090811;28;20028;-75
2022/07/28 08:36:52;;;;;;;7.35;2.15;;;21.50;99.90;;;;;;5083969;28;20633;-74
2022/07/28 08:39:18;;;;;;;8.18;1.90;;;21.80;99.90;;;;;;5085200;28;20073;-75
2022/07/28 08:42:21;;;;;;;4.45;1.80;;;22.00;99.90;;;;;;5078182;28;20020;-77
2022/07/28 08:44:57;;;;;;;5.10;1.88;;;22.20;99.90;;;;;;5080821;28;20493;-77
2022/07/28 08:47:25;;;;;;;8.27;2.10;;;22.10;99.90;;;;;;5083750;28;20024;-76
2022/07/28 08:49:55;;;;;;;9.02;2.15;;;22.20;99.90;;;;;;5080907;28;20028;-77
2022/07/28 08:52:23;;;;;;;5.88;2.30;;;22.10;99.90;;;;;;5085379;28;20593;-74
2022/07/28 08:54:51;;;;;;;10.23;1.90;;;22.20;99.90;;;;;;5089128;28;20432;-74
2022/07/28 08:57:33;;;;;;;6.90;2.10;;;22.40;99.90;;;;;;5084080;28;20047;-75
2022/07/28 09:00:00;;;;;;;6.18;1.50;;;22.50;99.70;;;;;;5086829;28;20115;-74
2022/07/28 09:02:28;;;;;;;5.30;1.63;;;22.60;99.30;;;;;;5092586;28;20027;-75
2022/07/28 09:04:57;;;;;;;3.03;1.70;;;22.70;98.90;;;;;;5078206;28;20471;-74
2022/07/28 09:07:25;;;;;;;9.18;1.70;;;22.90;98.90;;;;;;5079418;28;20566;-75
2022/07/28 09:09:51;;;;;;;6.18;2.25;;;23.20;98.80;;;;;;5083160;28;20678;-74
2022/07/28 09:12:17;;;;;;;7.47;1.92;;;23.30;97.60;;;;;;5080333;28;20365;-76
2022/07/28 09:14:43;;;;;;;5.55;1.70;;;23.10;97.10;;;;;;5081662;28;20034;-74
2022/07/28 09:17:09;;;;;;;5.18;1.92;;;23.10;97.50;;;;;;5080787;28;20573;-74
2022/07/28 09:19:36;;;;;;;7.47;1.80;;;22.90;97.10;;;;;;5086332;28;20087;-74
2022/07/28 09:22:03;;;;;;;7.05;1.80;;;22.90;97.40;;;;;;5079872;28;20048;-74
2022/07/28 09:24:36;;;;;;;4.82;2.05;;;22.90;97.70;;;;;;5087260;28;20016;-74
2022/07/28 09:27:10;;;;;;;5.55;1.38;;;22.90;97.30;;;;;;5088583;28;20020;-75
2022/07/28 09:29:38;;;;;;;6.25;1.88;;;23.00;97.60;;;;;;5078282;28;20016;-75
2022/07/28 09:32:04;;;;;;;4.82;1.65;;;23.20;98.90;;;;;;5091670;28;20032;-75
2022/07/28 09:34:39;;;;;;;8.13;1.77;;;23.40;97.60;;;;;;5095222;28;20637;-75
2022/07/28 09:37:05;;;;;;;8.13;2.08;;;23.40;96.60;;;;;;5088102;28;20031;-75
2022/07/28 09:39:32;;;;;;;5.15;2.00;;;23.40;96.60;;;;;;5090428;28;20043;-75
2022/07/28 09:41:58;;;;;;;4.65;1.65;;;23.40;96.90;;;;;;5081017;28;20032;-75
2022/07/28 09:44:26;;;;;;;7.03;1.60;;;23.50;96.80;;;;;;5089811;28;20029;-74
2022/07/28 09:46:53;;;;;;;4.97;1.63;;;23.60;96.60;;;;;;5082122;28;20462;-76
2022/07/28 09:49:19;;;;;;;4.72;1.90;;;23.50;96.10;;;;;;5091956;28;20036;-74
2022/07/28 09:52:04;;;;;;;3.78;1.92;;;23.40;96.40;;;;;;5081235;28;20060;-75
2022/07/28 09:54:30;;;;;;;5.10;1.40;;;23.30;96.00;;;;;;5086731;28;20110;-74
2022/07/28 09:56:56;;;;;;;5.57;2.38;;;23.20;96.60;;;;;;5082282;28;20110;-75
2022/07/28 09:59:22;;;;;;;6.22;1.80;;;23.10;96.60;;;;;;5086605;28;20051;-75
2022/07/28 10:01:59;;;;;;;5.75;1.88;;;22.90;96.60;;;;;;5082202;28;20845;-75
2022/07/28 10:04:40;;;;;;;5.97;1.77;;;22.80;96.90;;;;;;5081073;28;20474;-74
2022/07/28 10:07:06;;;;;;;;;;;22.80;96.80;;;;;;5096044;28;20387;-74
2022/07/28 10:09:32;;;;;;;4.65;1.50;;;22.80;97.10;;;;;;5090772;28;19912;-74
2022/07/28 10:12:18;;;;;;;6.75;1.73;;;22.90;96.90;;;;;;5095739;28;20024;-74
2022/07/28 10:14:45;;;;;;;6.75;1.90;;;23.10;97.30;;;;;;5083581;28;20029;-75
2022/07/28 10:17:31;;;;;;;5.60;1.70;;;23.50;96.70;;;;;;5083401;28;20032;-75
2022/07/28 10:19:58;;;;;;;4.65;1.80;;;23.60;95.80;;;;;;5092323;28;20024;-75
2022/07/28 10:22:36;;;;;;;5.07;1.83;;;23.80;96.10;;;;;;5089704;28;20023;-75
2022/07/28 10:25:13;;;;;;;6.60;1.75;;;23.70;95.20;;;;;;5092724;28;20048;-74
2022/07/28 10:27:40;;;;;;;12.43;1.88;;;23.60;95.70;;;;;;5085070;28;20024;-75
2022/07/28 10:30:07;;;;;;;5.07;1.98;;;23.70;96.10;;;;;;5096415;28;20038;-74
2022/07/28 10:32:40;;;;;;;4.68;1.60;;;23.60;95.20;;;;;;5093560;28;20061;-74
2022/07/28 10:35:12;;;;;;;3.80;1.50;;;23.80;95.20;;;;;;5084381;28;20095;-75
2022/07/28 10:38:05;;;;;;;7.88;1.77;;;24.00;94.80;;;;;;5096888;28;20035;-75
2022/07/28 10:40:40;;;;;;;6.03;1.63;;;24.30;94.40;;;;;;5092567;28;20024;-74
2022/07/28 10:43:07;;;;;;;6.53;1.77;;;24.40;94.50;;;;;;5080716;28;20024;-74
2022/07/28 10:45:43;;;;;;;10.40;2.38;;;24.70;94.50;;;;;;5079183;28;20136;-75
2022/07/28 10:48:11;;;;;;;9.40;2.50;;;24.70;93.50;;;;;;5075598;28;20047;-73
2022/07/28 10:50:39;;;;;;;3.38;1.73;;;24.60;93.80;;;;;;5078319;28;20052;-75
2022/07/28 10:53:07;;;;;;;7.00;1.70;;;24.40;93.70;;;;;;5079170;28;20059;-75
2022/07/28 10:55:51;;;;;;;5.95;1.85;;;24.20;93.80;;;;;;5078674;28;20649;-75
2022/07/28 10:58:45;;;;;;;4.25;1.60;;;24.30;95.60;;;;;;5103510;28;20086;-76
2022/07/28 11:01:31;;;;;;;2.10;1.38;;;24.30;94.30;;;;;;5078191;28;20051;-76
2022/07/28 11:04:00;;;;;;;6.30;1.98;;;24.40;94.20;;;;;;5075680;28;20047;-75
2022/07/28 11:06:38;;;;;;;12.55;2.25;;;24.50;94.40;;;;;;5086325;28;20036;-75
2022/07/28 11:09:16;;;;;;;4.88;2.00;;;24.60;94.10;;;;;;5076593;28;20032;-74
2022/07/28 11:11:53;;;;;;;7.78;1.48;;;24.60;93.90;;;;;;5077130;28;20059;-74
2022/07/28 11:14:37;;;;;;;5.25;1.80;;;24.70;94.40;;;;;;5078820;28;20396;-75
2022/07/28 11:17:10;;;;;;;5.97;1.83;;;24.80;94.50;;;;;;5079940;28;20032;-76
2022/07/28 11:19:49;;;;;;;7.25;2.20;;;24.70;94.00;;;;;;5076495;28;20032;-75
2022/07/28 11:22:20;;;;;;;10.48;1.98;;;24.60;94.20;;;;;;5088176;28;20025;-75
2022/07/28 11:25:01;;;;;;;2.63;1.50;;;24.60;94.80;;;;;;5076088;28;20020;-74
2022/07/28 11:27:42;;;;;;;6.45;1.48;;;24.50;94.80;;;;;;5077985;28;20025;-76
2022/07/28 11:30:51;;;;;;;7.32;1.92;;;24.80;95.10;;;;;;5088319;28;20029;-75
2022/07/28 11:33:19;;;;;;;5.20;1.92;;;25.30;93.90;;;;;;5076564;28;20036;-74
2022/07/28 11:35:45;;;;;;;3.60;1.52;;;25.70;92.60;;;;;;5074334;28;20162;-74
2022/07/28 11:38:15;;;;;;;4.63;1.63;;;25.80;92.40;;;;;;5079037;28;20076;-75
2022/07/28 11:40:53;;;;;;;8.57;1.75;;;26.00;92.20;;;;;;5076120;28;20051;-74
2022/07/28 11:43:30;;;;;;;6.30;1.20;;;26.00;92.00;;;;;;5089799;28;20388;-75
2022/07/28 11:46:05;;;;;;;4.32;1.35;;;26.30;92.20;;;;;;5077858;28;20066;-74
2022/07/28 11:48:32;;;;;;;3.97;1.42;;;26.50;90.80;;;;;;5074936;28;20028;-74
2022/07/28 11:51:04;;;;;;;8.07;1.85;;;26.50;90.20;;;;;;5073957;28;20020;-73
2022/07/28 11:53:48;;;;;;;6.38;1.75;;;26.60;90.40;;;;;;5077300;28;20094;-74
2022/07/28 11:56:20;;;;;;;5.97;1.50;;;26.50;90.50;;;;;;5084064;28;20115;-74
2022/07/28 11:58:58;;;;;;;6.07;2.10;;;26.70;91.10;;;;;;5075099;28;20039;-74
2022/07/28 12:01:24;;;;;;;6.03;1.80;;;26.90;90.10;;;;;;5078421;28;20570;-74
2022/07/28 12:03:51;;;;;;;5.88;2.38;;;27.40;90.10;;;;;;5079684;28;20462;-74
2022/07/28 12:06:19;;;;;;;6.55;2.00;;;27.80;88.30;;;;;;5077407;28;20684;-74
2022/07/28 12:08:59;;;;;;;8.18;1.83;;;27.80;87.90;;;;;;5077409;28;20592;-74
2022/07/28 12:11:27;;;;;;;3.25;1.40;;;27.90;87.20;;;;;;5075970;28;20052;-74
2022/07/28 12:14:00;;;;;;;4.85;1.30;;;27.60;87.50;;;;;;5075809;28;20412;-75
2022/07/28 12:16:28;;;;;;;3.70;1.48;;;27.60;88.30;;;;;;5081182;28;20032;-74
2022/07/28 12:18:54;;;;;;;6.80;1.45;;;27.50;87.40;;;;;;5086239;28;20096;-73
2022/07/28 12:21:39;;;;;;;3.38;1.48;;;27.40;86.10;;;;;;5074542;28;20047;-73
2022/07/28 12:24:07;;;;;;;3.53;1.48;;;27.20;86.70;;;;;;5074286;28;20025;-73
2022/07/28 12:26:34;;;;;;;3.20;1.23;;;27.00;87.10;;;;;;5074252;28;20024;-74
2022/07/28 12:29:01;;;;;;;5.38;1.27;;;27.10;86.50;;;;;;5074054;28;20036;-74
2022/07/28 12:31:34;;;;;;;4.20;1.50;;;26.90;87.30;;;;;;5075782;28;20108;-74
2022/07/28 12:34:05;;;;;;;5.00;1.15;;;26.90;86.80;;;;;;5078996;28;20488;-74
2022/07/28 12:36:33;;;;;;;7.03;1.35;;;27.20;87.20;;;;;;5078533;28;20153;-74
2022/07/28 12:39:00;;;;;;;4.13;1.23;;;27.30;85.90;;;;;;5076853;28;20094;-74
2022/07/28 12:41:37;;;;;;;4.20;1.77;;;27.20;86.20;;;;;;5077148;28;20131;-74
2022/07/28 12:44:04;;;;;;;3.20;1.80;;;27.30;87.10;;;;;;5074810;28;20032;-74
2022/07/28 12:46:31;;;;;;;5.78;1.52;;;27.70;87.20;;;;;;5077445;28;20480;-74
2022/07/28 12:48:58;;;;;;;5.97;1.80;;;27.80;83.90;;;;;;5078574;28;20442;-74
2022/07/28 12:51:36;;;;;;;3.50;1.60;;;28.00;82.90;;;;;;5077404;28;20071;-75
2022/07/28 12:54:04;;;;;;;3.05;1.00;;;28.50;83.50;;;;;;5078788;28;20123;-75
2022/07/28 12:56:31;;;;;;;3.30;1.48;;;28.30;81.90;;;;;;5080050;28;20071;-75
2022/07/28 12:59:12;;;;;;;5.32;1.15;;;28.40;82.10;;;;;;5077072;28;20056;-75
2022/07/28 13:01:58;;;;;;;8.48;1.80;;;28.40;81.70;;;;;;5076676;28;20020;-75